sensor_id;sensor_type;location;lat;lon;timestamp;P1;durP1;ratioP1;P2;durP2;ratioP2
22650;SDS011;11492;42.646;23.400;2023-10-08T00:02:27;11.27;;;3.70;;
22650;SDS011;11492;42.646;23.400;2023-10-08T00:04:53;10.10;;;3.85;;
22650;SDS011;11492;42.646;23.400;2023-10-08T00:07:23;9.23;;;3.63;;
22650;SDS011;11492;42.646;23.400;2023-10-08T00:09:52;7.55;;;3.70;;
22650;SDS011;11492;42.646;23.400;2023-10-08T00:12:18;8.40;;;3.97;;
22650;SDS011;11492;42.646;23.400;2023-10-08T00:14:45;11.43;;;3.83;;
22650;SDS011;11492;42.646;23.400;2023-10-08T00:17:19;9.02;;;3.67;;
22650;SDS011;11492;42.646;23.400;2023-10-08T00:19:46;8.07;;;3.80;;
22650;SDS011;11492;42.646;23.400;2023-10-08T00:22:17;8.70;;;3.67;;
22650;SDS011;11492;42.646;23.400;2023-10-08T00:24:44;8.60;;;3.85;;
22650;SDS011;11492;42.646;23.400;2023-10-08T00:27:20;10.80;;;4.38;;
22650;SDS011;11492;42.646;23.400;2023-10-08T00:29:47;7.88;;;4.10;;
22650;SDS011;11492;42.646;23.400;2023-10-08T00:32:12;8.43;;;3.88;;
22650;SDS011;11492;42.646;23.400;2023-10-08T00:34:39;10.50;;;4.30;;
22650;SDS011;11492;42.646;23.400;2023-10-08T00:37:09;6.35;;;3.45;;
22650;SDS011;11492;42.646;23.400;2023-10-08T00:39:36;8.18;;;4.07;;
22650;SDS011;11492;42.646;23.400;2023-10-08T00:42:05;9.00;;;3.90;;
22650;SDS011;11492;42.646;23.400;2023-10-08T00:44:33;8.18;;;3.97;;
22650;SDS011;11492;42.646;23.400;2023-10-08T00:47:29;14.32;;;4.10;;
22650;SDS011;11492;42.646;23.400;2023-10-08T00:49:59;7.43;;;4.07;;
22650;SDS011;11492;42.646;23.400;2023-10-08T00:52:48;7.05;;;3.50;;
22650;SDS011;11492;42.646;23.400;2023-10-08T00:55:35;7.03;;;3.72;;
22650;SDS011;11492;42.646;23.400;2023-10-08T00:58:04;11.13;;;3.72;;
22650;SDS011;11492;42.646;23.400;2023-10-08T01:00:37;7.95;;;3.60;;
22650;SDS011;11492;42.646;23.400;2023-10-08T01:03:06;8.00;;;4.00;;
22650;SDS011;11492;42.646;23.400;2023-10-08T01:08:12;9.75;;;3.88;;
22650;SDS011;11492;42.646;23.400;2023-10-08T01:10:47;10.90;;;4.10;;
22650;SDS011;11492;42.646;23.400;2023-10-08T01:13:15;8.05;;;3.78;;
22650;SDS011;11492;42.646;23.400;2023-10-08T01:15:45;7.40;;;3.58;;
22650;SDS011;11492;42.646;23.400;2023-10-08T01:18:14;7.95;;;3.60;;
22650;SDS011;11492;42.646;23.400;2023-10-08T01:20:41;11.23;;;4.18;;
22650;SDS011;11492;42.646;23.400;2023-10-08T01:23:13;8.60;;;4.18;;
22650;SDS011;11492;42.646;23.400;2023-10-08T01:25:45;8.50;;;3.88;;
22650;SDS011;11492;42.646;23.400;2023-10-08T01:28:16;7.55;;;3.75;;
22650;SDS011;11492;42.646;23.400;2023-10-08T01:30:56;6.88;;;3.42;;
22650;SDS011;11492;42.646;23.400;2023-10-08T01:33:25;8.00;;;3.80;;
22650;SDS011;11492;42.646;23.400;2023-10-08T01:35:57;15.48;;;4.10;;
22650;SDS011;11492;42.646;23.400;2023-10-08T01:38:29;8.73;;;3.72;;
22650;SDS011;11492;42.646;23.400;2023-10-08T01:40:57;9.50;;;3.42;;
22650;SDS011;11492;42.646;23.400;2023-10-08T01:43:29;8.07;;;3.80;;
22650;SDS011;11492;42.646;23.400;2023-10-08T01:45:55;7.00;;;3.80;;
22650;SDS011;11492;42.646;23.400;2023-10-08T01:48:21;9.10;;;3.95;;
22650;SDS011;11492;42.646;23.400;2023-10-08T01:51:03;10.02;;;3.70;;
22650;SDS011;11492;42.646;23.400;2023-10-08T01:53:35;10.35;;;4.85;;
22650;SDS011;11492;42.646;23.400;2023-10-08T01:56:01;11.25;;;4.50;;
22650;SDS011;11492;42.646;23.400;2023-10-08T01:58:29;9.85;;;4.55;;
22650;SDS011;11492;42.646;23.400;2023-10-08T02:00:56;9.77;;;4.60;;
22650;SDS011;11492;42.646;23.400;2023-10-08T02:03:25;23.83;;;4.53;;
22650;SDS011;11492;42.646;23.400;2023-10-08T02:05:53;12.18;;;4.60;;
22650;SDS011;11492;42.646;23.400;2023-10-08T02:08:19;8.85;;;4.00;;
22650;SDS011;11492;42.646;23.400;2023-10-08T02:10:47;11.95;;;4.30;;
22650;SDS011;11492;42.646;23.400;2023-10-08T02:13:13;8.55;;;3.85;;
22650;SDS011;11492;42.646;23.400;2023-10-08T02:15:49;5.45;;;3.28;;
22650;SDS011;11492;42.646;23.400;2023-10-08T02:18:18;9.43;;;3.45;;
22650;SDS011;11492;42.646;23.400;2023-10-08T02:20:46;10.43;;;3.92;;
22650;SDS011;11492;42.646;23.400;2023-10-08T02:23:14;8.63;;;3.85;;
22650;SDS011;11492;42.646;23.400;2023-10-08T02:25:40;9.45;;;3.63;;
22650;SDS011;11492;42.646;23.400;2023-10-08T02:28:09;10.07;;;4.30;;
22650;SDS011;11492;42.646;23.400;2023-10-08T02:30:38;14.07;;;4.13;;
22650;SDS011;11492;42.646;23.400;2023-10-08T02:33:06;8.27;;;3.83;;
22650;SDS011;11492;42.646;23.400;2023-10-08T02:35:43;7.22;;;4.10;;
22650;SDS011;11492;42.646;23.400;2023-10-08T02:38:13;7.40;;;4.05;;
22650;SDS011;11492;42.646;23.400;2023-10-08T02:40:44;10.98;;;4.75;;
22650;SDS011;11492;42.646;23.400;2023-10-08T02:43:12;8.70;;;4.15;;
22650;SDS011;11492;42.646;23.400;2023-10-08T02:45:43;8.30;;;4.20;;
22650;SDS011;11492;42.646;23.400;2023-10-08T02:48:14;8.50;;;4.00;;
22650;SDS011;11492;42.646;23.400;2023-10-08T02:50:41;9.25;;;4.05;;
22650;SDS011;11492;42.646;23.400;2023-10-08T02:53:10;8.13;;;4.10;;
22650;SDS011;11492;42.646;23.400;2023-10-08T02:55:43;11.93;;;3.55;;
22650;SDS011;11492;42.646;23.400;2023-10-08T02:58:12;8.27;;;4.18;;
22650;SDS011;11492;42.646;23.400;2023-10-08T03:00:47;10.55;;;3.65;;
22650;SDS011;11492;42.646;23.400;2023-10-08T03:03:14;11.27;;;4.35;;
22650;SDS011;11492;42.646;23.400;2023-10-08T03:05:44;8.82;;;3.85;;
22650;SDS011;11492;42.646;23.400;2023-10-08T03:08:14;6.05;;;3.05;;
22650;SDS011;11492;42.646;23.400;2023-10-08T03:10:46;9.00;;;3.88;;
22650;SDS011;11492;42.646;23.400;2023-10-08T03:13:16;10.30;;;3.60;;
22650;SDS011;11492;42.646;23.400;2023-10-08T03:15:43;7.22;;;3.38;;
22650;SDS011;11492;42.646;23.400;2023-10-08T03:18:24;7.55;;;3.58;;
22650;SDS011;11492;42.646;23.400;2023-10-08T03:20:50;8.35;;;3.67;;
22650;SDS011;11492;42.646;23.400;2023-10-08T03:23:16;9.70;;;3.97;;
22650;SDS011;11492;42.646;23.400;2023-10-08T03:25:52;8.60;;;3.55;;
22650;SDS011;11492;42.646;23.400;2023-10-08T03:28:34;9.30;;;4.20;;
22650;SDS011;11492;42.646;23.400;2023-10-08T03:31:01;10.45;;;3.97;;
22650;SDS011;11492;42.646;23.400;2023-10-08T03:33:31;10.13;;;4.10;;
22650;SDS011;11492;42.646;23.400;2023-10-08T03:36:04;7.78;;;3.63;;
22650;SDS011;11492;42.646;23.400;2023-10-08T03:38:40;10.55;;;3.85;;
22650;SDS011;11492;42.646;23.400;2023-10-08T03:41:18;8.63;;;3.88;;
22650;SDS011;11492;42.646;23.400;2023-10-08T03:43:54;7.65;;;3.80;;
22650;SDS011;11492;42.646;23.400;2023-10-08T03:46:31;12.95;;;3.78;;
22650;SDS011;11492;42.646;23.400;2023-10-08T03:49:04;7.53;;;3.72;;
22650;SDS011;11492;42.646;23.400;2023-10-08T03:51:44;9.95;;;3.78;;
22650;SDS011;11492;42.646;23.400;2023-10-08T03:54:10;9.57;;;3.30;;
22650;SDS011;11492;42.646;23.400;2023-10-08T03:59:17;10.80;;;3.60;;
22650;SDS011;11492;42.646;23.400;2023-10-08T04:01:59;7.47;;;3.50;;
22650;SDS011;11492;42.646;23.400;2023-10-08T04:04:49;9.80;;;4.32;;
22650;SDS011;11492;42.646;23.400;2023-10-08T04:07:21;9.10;;;3.85;;
22650;SDS011;11492;42.646;23.400;2023-10-08T04:09:51;7.00;;;3.47;;
22650;SDS011;11492;42.646;23.400;2023-10-08T04:12:37;9.68;;;3.67;;
22650;SDS011;11492;42.646;23.400;2023-10-08T04:15:09;11.77;;;3.90;;
22650;SDS011;11492;42.646;23.400;2023-10-08T04:17:38;10.30;;;4.00;;
22650;SDS011;11492;42.646;23.400;2023-10-08T04:20:10;8.23;;;4.03;;
22650;SDS011;11492;42.646;23.400;2023-10-08T04:22:55;9.52;;;3.80;;
22650;SDS011;11492;42.646;23.400;2023-10-08T04:25:25;9.27;;;4.15;;
22650;SDS011;11492;42.646;23.400;2023-10-08T04:27:55;9.65;;;3.92;;
22650;SDS011;11492;42.646;23.400;2023-10-08T04:30:27;8.77;;;3.58;;
22650;SDS011;11492;42.646;23.400;2023-10-08T04:33:05;9.35;;;4.15;;
22650;SDS011;11492;42.646;23.400;2023-10-08T04:35:39;8.48;;;3.60;;
22650;SDS011;11492;42.646;23.400;2023-10-08T04:38:20;11.60;;;4.20;;
22650;SDS011;11492;42.646;23.400;2023-10-08T04:40:48;11.90;;;4.07;;
22650;SDS011;11492;42.646;23.400;2023-10-08T04:43:16;13.93;;;3.97;;
22650;SDS011;11492;42.646;23.400;2023-10-08T04:46:06;9.05;;;3.75;;
22650;SDS011;11492;42.646;23.400;2023-10-08T04:48:45;11.00;;;4.10;;
22650;SDS011;11492;42.646;23.400;2023-10-08T04:51:12;11.65;;;4.30;;
22650;SDS011;11492;42.646;23.400;2023-10-08T04:53:43;11.10;;;4.15;;
22650;SDS011;11492;42.646;23.400;2023-10-08T04:56:14;8.25;;;3.97;;
22650;SDS011;11492;42.646;23.400;2023-10-08T04:58:46;8.68;;;4.20;;
22650;SDS011;11492;42.646;23.400;2023-10-08T05:01:13;10.55;;;4.10;;
22650;SDS011;11492;42.646;23.400;2023-10-08T05:03:43;10.35;;;4.07;;
22650;SDS011;11492;42.646;23.400;2023-10-08T05:06:27;9.52;;;4.35;;
22650;SDS011;11492;42.646;23.400;2023-10-08T05:09:00;11.23;;;4.30;;
22650;SDS011;11492;42.646;23.400;2023-10-08T05:11:35;9.40;;;4.13;;
22650;SDS011;11492;42.646;23.400;2023-10-08T05:14:19;10.50;;;4.22;;
22650;SDS011;11492;42.646;23.400;2023-10-08T05:16:56;10.15;;;4.28;;
22650;SDS011;11492;42.646;23.400;2023-10-08T05:19:38;11.88;;;4.30;;
22650;SDS011;11492;42.646;23.400;2023-10-08T05:22:05;12.23;;;4.40;;
22650;SDS011;11492;42.646;23.400;2023-10-08T05:24:47;12.60;;;4.85;;
22650;SDS011;11492;42.646;23.400;2023-10-08T05:27:33;12.70;;;4.50;;
22650;SDS011;11492;42.646;23.400;2023-10-08T05:30:19;11.63;;;4.35;;
22650;SDS011;11492;42.646;23.400;2023-10-08T05:33:02;8.65;;;4.10;;
22650;SDS011;11492;42.646;23.400;2023-10-08T05:35:50;10.35;;;4.20;;
22650;SDS011;11492;42.646;23.400;2023-10-08T05:38:22;13.55;;;4.75;;
22650;SDS011;11492;42.646;23.400;2023-10-08T05:41:03;10.50;;;4.68;;
22650;SDS011;11492;42.646;23.400;2023-10-08T05:43:34;13.02;;;4.60;;
22650;SDS011;11492;42.646;23.400;2023-10-08T05:46:06;9.00;;;4.47;;
22650;SDS011;11492;42.646;23.400;2023-10-08T05:49:01;10.68;;;4.38;;
22650;SDS011;11492;42.646;23.400;2023-10-08T05:51:38;9.63;;;4.65;;
22650;SDS011;11492;42.646;23.400;2023-10-08T05:54:15;13.60;;;4.50;;
22650;SDS011;11492;42.646;23.400;2023-10-08T05:57:04;13.88;;;4.95;;
22650;SDS011;11492;42.646;23.400;2023-10-08T05:59:42;11.68;;;4.55;;
22650;SDS011;11492;42.646;23.400;2023-10-08T06:02:24;10.30;;;5.03;;
22650;SDS011;11492;42.646;23.400;2023-10-08T06:04:54;11.95;;;5.75;;
22650;SDS011;11492;42.646;23.400;2023-10-08T06:07:50;15.30;;;5.07;;
22650;SDS011;11492;42.646;23.400;2023-10-08T06:10:30;16.88;;;5.43;;
22650;SDS011;11492;42.646;23.400;2023-10-08T06:13:04;11.18;;;4.65;;
22650;SDS011;11492;42.646;23.400;2023-10-08T06:15:38;11.77;;;5.43;;
22650;SDS011;11492;42.646;23.400;2023-10-08T06:18:18;15.00;;;5.55;;
22650;SDS011;11492;42.646;23.400;2023-10-08T06:20:44;13.68;;;5.10;;
22650;SDS011;11492;42.646;23.400;2023-10-08T06:23:14;16.42;;;5.63;;
22650;SDS011;11492;42.646;23.400;2023-10-08T06:25:46;10.50;;;4.85;;
22650;SDS011;11492;42.646;23.400;2023-10-08T06:28:20;10.20;;;4.80;;
22650;SDS011;11492;42.646;23.400;2023-10-08T06:30:49;11.27;;;5.10;;
22650;SDS011;11492;42.646;23.400;2023-10-08T06:33:25;10.38;;;4.63;;
22650;SDS011;11492;42.646;23.400;2023-10-08T06:35:58;14.70;;;5.63;;
22650;SDS011;11492;42.646;23.400;2023-10-08T06:38:44;14.57;;;5.18;;
22650;SDS011;11492;42.646;23.400;2023-10-08T06:41:14;13.63;;;6.07;;
22650;SDS011;11492;42.646;23.400;2023-10-08T06:43:47;17.50;;;6.10;;
22650;SDS011;11492;42.646;23.400;2023-10-08T06:46:16;15.10;;;5.90;;
22650;SDS011;11492;42.646;23.400;2023-10-08T06:48:46;16.00;;;6.22;;
22650;SDS011;11492;42.646;23.400;2023-10-08T06:51:14;15.20;;;6.20;;
22650;SDS011;11492;42.646;23.400;2023-10-08T06:53:43;15.18;;;5.47;;
22650;SDS011;11492;42.646;23.400;2023-10-08T06:56:14;16.77;;;5.95;;
22650;SDS011;11492;42.646;23.400;2023-10-08T06:58:42;13.13;;;5.90;;
22650;SDS011;11492;42.646;23.400;2023-10-08T07:01:13;16.23;;;6.30;;
22650;SDS011;11492;42.646;23.400;2023-10-08T07:03:47;17.48;;;5.88;;
22650;SDS011;11492;42.646;23.400;2023-10-08T07:06:17;22.50;;;6.20;;
22650;SDS011;11492;42.646;23.400;2023-10-08T07:08:57;15.57;;;6.40;;
22650;SDS011;11492;42.646;23.400;2023-10-08T07:11:25;15.38;;;6.90;;
22650;SDS011;11492;42.646;23.400;2023-10-08T07:13:54;16.48;;;6.07;;
22650;SDS011;11492;42.646;23.400;2023-10-08T07:16:23;20.27;;;6.22;;
22650;SDS011;11492;42.646;23.400;2023-10-08T07:18:49;23.00;;;7.57;;
22650;SDS011;11492;42.646;23.400;2023-10-08T07:21:19;19.05;;;6.70;;
22650;SDS011;11492;42.646;23.400;2023-10-08T07:23:49;18.15;;;6.95;;
22650;SDS011;11492;42.646;23.400;2023-10-08T07:26:29;21.33;;;6.30;;
22650;SDS011;11492;42.646;23.400;2023-10-08T07:29:02;26.40;;;7.32;;
22650;SDS011;11492;42.646;23.400;2023-10-08T07:31:37;24.42;;;7.18;;
22650;SDS011;11492;42.646;23.400;2023-10-08T07:34:07;20.08;;;7.35;;
22650;SDS011;11492;42.646;23.400;2023-10-08T07:36:51;17.63;;;7.10;;
22650;SDS011;11492;42.646;23.400;2023-10-08T07:39:19;21.35;;;6.85;;
22650;SDS011;11492;42.646;23.400;2023-10-08T07:42:01;19.08;;;7.30;;
22650;SDS011;11492;42.646;23.400;2023-10-08T07:44:31;20.92;;;6.80;;
22650;SDS011;11492;42.646;23.400;2023-10-08T07:46:57;23.35;;;7.18;;
22650;SDS011;11492;42.646;23.400;2023-10-08T07:49:23;18.27;;;7.50;;
22650;SDS011;11492;42.646;23.400;2023-10-08T07:51:50;17.90;;;7.72;;
22650;SDS011;11492;42.646;23.400;2023-10-08T07:54:26;20.90;;;7.57;;
22650;SDS011;11492;42.646;23.400;2023-10-08T07:56:58;17.58;;;7.70;;
22650;SDS011;11492;42.646;23.400;2023-10-08T07:59:56;16.58;;;7.50;;
22650;SDS011;11492;42.646;23.400;2023-10-08T08:02:42;13.48;;;6.55;;
22650;SDS011;11492;42.646;23.400;2023-10-08T08:05:08;16.45;;;6.47;;
22650;SDS011;11492;42.646;23.400;2023-10-08T08:07:34;17.08;;;6.50;;
22650;SDS011;11492;42.646;23.400;2023-10-08T08:10:00;18.05;;;6.13;;
22650;SDS011;11492;42.646;23.400;2023-10-08T08:12:28;22.63;;;5.63;;
22650;SDS011;11492;42.646;23.400;2023-10-08T08:14:58;22.73;;;6.47;;
22650;SDS011;11492;42.646;23.400;2023-10-08T08:17:24;16.73;;;5.70;;
22650;SDS011;11492;42.646;23.400;2023-10-08T08:19:51;20.25;;;6.07;;
22650;SDS011;11492;42.646;23.400;2023-10-08T08:22:18;16.73;;;6.45;;
22650;SDS011;11492;42.646;23.400;2023-10-08T08:24:48;26.38;;;7.03;;
22650;SDS011;11492;42.646;23.400;2023-10-08T08:27:18;14.10;;;6.45;;
22650;SDS011;11492;42.646;23.400;2023-10-08T08:30:05;21.77;;;6.90;;
22650;SDS011;11492;42.646;23.400;2023-10-08T08:32:36;18.33;;;7.13;;
22650;SDS011;11492;42.646;23.400;2023-10-08T08:35:07;15.55;;;6.30;;
22650;SDS011;11492;42.646;23.400;2023-10-08T08:37:41;15.98;;;6.20;;
22650;SDS011;11492;42.646;23.400;2023-10-08T08:40:08;23.08;;;6.38;;
22650;SDS011;11492;42.646;23.400;2023-10-08T08:42:47;15.35;;;6.75;;
22650;SDS011;11492;42.646;23.400;2023-10-08T08:45:18;19.77;;;6.43;;
22650;SDS011;11492;42.646;23.400;2023-10-08T08:47:46;11.98;;;6.28;;
22650;SDS011;11492;42.646;23.400;2023-10-08T08:50:12;17.15;;;6.35;;
22650;SDS011;11492;42.646;23.400;2023-10-08T08:52:38;16.65;;;6.15;;
22650;SDS011;11492;42.646;23.400;2023-10-08T08:55:08;13.77;;;6.03;;
22650;SDS011;11492;42.646;23.400;2023-10-08T08:57:39;12.25;;;5.35;;
22650;SDS011;11492;42.646;23.400;2023-10-08T09:00:12;15.87;;;5.70;;
22650;SDS011;11492;42.646;23.400;2023-10-08T09:02:40;13.13;;;6.30;;
22650;SDS011;11492;42.646;23.400;2023-10-08T09:05:07;14.43;;;5.43;;
22650;SDS011;11492;42.646;23.400;2023-10-08T09:08:03;9.93;;;4.95;;
22650;SDS011;11492;42.646;23.400;2023-10-08T09:10:32;10.15;;;4.72;;
22650;SDS011;11492;42.646;23.400;2023-10-08T09:13:06;11.55;;;5.70;;
22650;SDS011;11492;42.646;23.400;2023-10-08T09:15:34;10.60;;;5.03;;
22650;SDS011;11492;42.646;23.400;2023-10-08T09:18:02;11.70;;;5.25;;
22650;SDS011;11492;42.646;23.400;2023-10-08T09:20:28;13.27;;;4.82;;
22650;SDS011;11492;42.646;23.400;2023-10-08T09:23:06;11.25;;;5.03;;
22650;SDS011;11492;42.646;23.400;2023-10-08T09:25:39;15.43;;;5.10;;
22650;SDS011;11492;42.646;23.400;2023-10-08T09:28:07;14.88;;;5.65;;
22650;SDS011;11492;42.646;23.400;2023-10-08T09:30:37;11.38;;;4.93;;
22650;SDS011;11492;42.646;23.400;2023-10-08T09:33:09;15.15;;;5.10;;
22650;SDS011;11492;42.646;23.400;2023-10-08T09:35:37;11.00;;;5.20;;
22650;SDS011;11492;42.646;23.400;2023-10-08T09:38:03;9.80;;;4.85;;
22650;SDS011;11492;42.646;23.400;2023-10-08T09:40:41;13.65;;;5.03;;
22650;SDS011;11492;42.646;23.400;2023-10-08T09:43:12;22.92;;;5.03;;
22650;SDS011;11492;42.646;23.400;2023-10-08T09:45:42;10.77;;;5.32;;
22650;SDS011;11492;42.646;23.400;2023-10-08T09:48:13;13.40;;;4.65;;
22650;SDS011;11492;42.646;23.400;2023-10-08T09:50:41;13.63;;;4.47;;
22650;SDS011;11492;42.646;23.400;2023-10-08T09:53:10;10.20;;;5.00;;
22650;SDS011;11492;42.646;23.400;2023-10-08T09:55:55;10.48;;;4.80;;
22650;SDS011;11492;42.646;23.400;2023-10-08T09:58:27;9.95;;;4.88;;
22650;SDS011;11492;42.646;23.400;2023-10-08T10:00:55;14.93;;;5.10;;
22650;SDS011;11492;42.646;23.400;2023-10-08T10:03:23;13.40;;;4.55;;
22650;SDS011;11492;42.646;23.400;2023-10-08T10:05:51;8.15;;;4.70;;
22650;SDS011;11492;42.646;23.400;2023-10-08T10:08:19;14.05;;;5.00;;
22650;SDS011;11492;42.646;23.400;2023-10-08T10:10:51;10.40;;;4.80;;
22650;SDS011;11492;42.646;23.400;2023-10-08T10:13:24;11.00;;;4.38;;
22650;SDS011;11492;42.646;23.400;2023-10-08T10:16:23;10.88;;;4.20;;
22650;SDS011;11492;42.646;23.400;2023-10-08T10:18:49;8.15;;;4.40;;
22650;SDS011;11492;42.646;23.400;2023-10-08T10:26:34;12.88;;;4.72;;
22650;SDS011;11492;42.646;23.400;2023-10-08T10:31:41;8.75;;;3.92;;
22650;SDS011;11492;42.646;23.400;2023-10-08T10:34:10;8.68;;;4.40;;
22650;SDS011;11492;42.646;23.400;2023-10-08T10:36:38;9.20;;;4.13;;
22650;SDS011;11492;42.646;23.400;2023-10-08T10:39:05;7.75;;;3.58;;
22650;SDS011;11492;42.646;23.400;2023-10-08T10:42:04;15.38;;;4.05;;
22650;SDS011;11492;42.646;23.400;2023-10-08T10:44:32;8.18;;;3.75;;
22650;SDS011;11492;42.646;23.400;2023-10-08T10:47:03;10.93;;;4.13;;
22650;SDS011;11492;42.646;23.400;2023-10-08T10:49:45;7.47;;;3.60;;
22650;SDS011;11492;42.646;23.400;2023-10-08T10:52:41;10.23;;;4.30;;
22650;SDS011;11492;42.646;23.400;2023-10-08T10:55:17;11.38;;;3.80;;
22650;SDS011;11492;42.646;23.400;2023-10-08T10:57:54;10.40;;;3.97;;
22650;SDS011;11492;42.646;23.400;2023-10-08T11:00:22;14.00;;;3.90;;
22650;SDS011;11492;42.646;23.400;2023-10-08T11:02:58;12.85;;;3.85;;
22650;SDS011;11492;42.646;23.400;2023-10-08T11:05:28;9.82;;;3.90;;
22650;SDS011;11492;42.646;23.400;2023-10-08T11:07:56;8.50;;;3.70;;
22650;SDS011;11492;42.646;23.400;2023-10-08T11:10:33;10.90;;;3.45;;
22650;SDS011;11492;42.646;23.400;2023-10-08T11:13:06;11.15;;;4.10;;
22650;SDS011;11492;42.646;23.400;2023-10-08T11:15:42;13.52;;;3.83;;
22650;SDS011;11492;42.646;23.400;2023-10-08T11:18:16;13.02;;;4.07;;
22650;SDS011;11492;42.646;23.400;2023-10-08T11:20:44;6.28;;;3.53;;
22650;SDS011;11492;42.646;23.400;2023-10-08T11:23:14;10.07;;;3.88;;
22650;SDS011;11492;42.646;23.400;2023-10-08T11:26:06;10.20;;;4.05;;
22650;SDS011;11492;42.646;23.400;2023-10-08T11:28:36;13.82;;;4.30;;
22650;SDS011;11492;42.646;23.400;2023-10-08T11:31:07;7.15;;;3.40;;
22650;SDS011;11492;42.646;23.400;2023-10-08T11:33:40;12.50;;;4.07;;
22650;SDS011;11492;42.646;23.400;2023-10-08T11:36:07;12.48;;;3.80;;
22650;SDS011;11492;42.646;23.400;2023-10-08T11:38:46;11.65;;;4.03;;
22650;SDS011;11492;42.646;23.400;2023-10-08T11:41:14;14.07;;;4.15;;
22650;SDS011;11492;42.646;23.400;2023-10-08T11:43:50;16.83;;;3.72;;
22650;SDS011;11492;42.646;23.400;2023-10-08T11:46:27;21.75;;;3.97;;
22650;SDS011;11492;42.646;23.400;2023-10-08T11:49:03;17.30;;;3.95;;
22650;SDS011;11492;42.646;23.400;2023-10-08T11:51:44;13.50;;;3.95;;
22650;SDS011;11492;42.646;23.400;2023-10-08T11:54:13;16.70;;;4.00;;
22650;SDS011;11492;42.646;23.400;2023-10-08T11:56:39;16.23;;;4.28;;
22650;SDS011;11492;42.646;23.400;2023-10-08T11:59:07;16.58;;;4.88;;
22650;SDS011;11492;42.646;23.400;2023-10-08T12:01:37;14.38;;;4.10;;
22650;SDS011;11492;42.646;23.400;2023-10-08T12:04:11;16.63;;;4.75;;
22650;SDS011;11492;42.646;23.400;2023-10-08T12:06:42;16.60;;;5.28;;
22650;SDS011;11492;42.646;23.400;2023-10-08T12:09:17;13.30;;;3.92;;
22650;SDS011;11492;42.646;23.400;2023-10-08T12:11:47;18.58;;;4.10;;
22650;SDS011;11492;42.646;23.400;2023-10-08T12:14:14;11.50;;;3.85;;
22650;SDS011;11492;42.646;23.400;2023-10-08T12:16:41;16.95;;;4.60;;
22650;SDS011;11492;42.646;23.400;2023-10-08T12:19:07;31.55;;;4.90;;
22650;SDS011;11492;42.646;23.400;2023-10-08T12:21:43;23.80;;;5.10;;
22650;SDS011;11492;42.646;23.400;2023-10-08T12:24:13;18.77;;;4.57;;
22650;SDS011;11492;42.646;23.400;2023-10-08T12:26:39;14.23;;;4.20;;
22650;SDS011;11492;42.646;23.400;2023-10-08T12:29:11;11.77;;;4.60;;
22650;SDS011;11492;42.646;23.400;2023-10-08T12:31:39;12.90;;;3.97;;
22650;SDS011;11492;42.646;23.400;2023-10-08T12:34:12;22.40;;;5.18;;
22650;SDS011;11492;42.646;23.400;2023-10-08T12:36:42;20.85;;;4.22;;
22650;SDS011;11492;42.646;23.400;2023-10-08T12:39:07;12.45;;;4.13;;
22650;SDS011;11492;42.646;23.400;2023-10-08T12:41:44;20.48;;;5.03;;
22650;SDS011;11492;42.646;23.400;2023-10-08T12:44:13;17.80;;;4.50;;
22650;SDS011;11492;42.646;23.400;2023-10-08T12:46:41;13.05;;;4.55;;
22650;SDS011;11492;42.646;23.400;2023-10-08T12:49:09;25.17;;;4.40;;
22650;SDS011;11492;42.646;23.400;2023-10-08T12:51:34;15.10;;;3.53;;
22650;SDS011;11492;42.646;23.400;2023-10-08T12:54:01;27.33;;;4.55;;
22650;SDS011;11492;42.646;23.400;2023-10-08T12:56:36;24.60;;;4.70;;
22650;SDS011;11492;42.646;23.400;2023-10-08T12:59:10;21.58;;;4.15;;
22650;SDS011;11492;42.646;23.400;2023-10-08T13:01:45;15.23;;;4.22;;
22650;SDS011;11492;42.646;23.400;2023-10-08T13:04:17;23.17;;;4.47;;
22650;SDS011;11492;42.646;23.400;2023-10-08T13:06:50;14.30;;;4.55;;
22650;SDS011;11492;42.646;23.400;2023-10-08T13:09:17;18.95;;;4.57;;
22650;SDS011;11492;42.646;23.400;2023-10-08T13:11:43;15.07;;;4.47;;
22650;SDS011;11492;42.646;23.400;2023-10-08T13:14:09;21.02;;;4.18;;
22650;SDS011;11492;42.646;23.400;2023-10-08T13:16:37;40.83;;;13.15;;
22650;SDS011;11492;42.646;23.400;2023-10-08T13:19:05;23.00;;;5.15;;
22650;SDS011;11492;42.646;23.400;2023-10-08T13:21:33;20.90;;;4.22;;
22650;SDS011;11492;42.646;23.400;2023-10-08T13:23:59;21.02;;;3.80;;
22650;SDS011;11492;42.646;23.400;2023-10-08T13:26:27;24.63;;;4.32;;
22650;SDS011;11492;42.646;23.400;2023-10-08T13:29:00;20.40;;;4.47;;
22650;SDS011;11492;42.646;23.400;2023-10-08T13:31:26;16.55;;;3.97;;
22650;SDS011;11492;42.646;23.400;2023-10-08T13:33:53;12.05;;;3.40;;
22650;SDS011;11492;42.646;23.400;2023-10-08T13:36:21;20.05;;;4.15;;
22650;SDS011;11492;42.646;23.400;2023-10-08T13:38:49;23.75;;;4.68;;
22650;SDS011;11492;42.646;23.400;2023-10-08T13:41:17;20.02;;;4.22;;
22650;SDS011;11492;42.646;23.400;2023-10-08T13:43:43;13.60;;;4.32;;
22650;SDS011;11492;42.646;23.400;2023-10-08T13:46:12;16.67;;;4.70;;
22650;SDS011;11492;42.646;23.400;2023-10-08T13:48:40;22.00;;;4.82;;
22650;SDS011;11492;42.646;23.400;2023-10-08T13:51:11;17.45;;;4.07;;
22650;SDS011;11492;42.646;23.400;2023-10-08T13:53:48;30.27;;;4.30;;
22650;SDS011;11492;42.646;23.400;2023-10-08T13:56:25;24.35;;;4.10;;
22650;SDS011;11492;42.646;23.400;2023-10-08T13:58:53;15.57;;;4.05;;
22650;SDS011;11492;42.646;23.400;2023-10-08T14:01:39;18.92;;;4.22;;
22650;SDS011;11492;42.646;23.400;2023-10-08T14:04:09;20.40;;;3.95;;
22650;SDS011;11492;42.646;23.400;2023-10-08T14:06:35;14.63;;;4.30;;
22650;SDS011;11492;42.646;23.400;2023-10-08T14:09:03;24.67;;;3.83;;
22650;SDS011;11492;42.646;23.400;2023-10-08T14:11:37;26.23;;;4.15;;
22650;SDS011;11492;42.646;23.400;2023-10-08T14:14:04;18.60;;;3.70;;
22650;SDS011;11492;42.646;23.400;2023-10-08T14:16:37;18.65;;;3.90;;
22650;SDS011;11492;42.646;23.400;2023-10-08T14:19:07;12.63;;;4.13;;
22650;SDS011;11492;42.646;23.400;2023-10-08T14:21:41;15.68;;;3.70;;
22650;SDS011;11492;42.646;23.400;2023-10-08T14:24:30;20.75;;;4.65;;
22650;SDS011;11492;42.646;23.400;2023-10-08T14:27:03;20.48;;;4.70;;
22650;SDS011;11492;42.646;23.400;2023-10-08T14:29:37;20.55;;;4.25;;
22650;SDS011;11492;42.646;23.400;2023-10-08T14:32:13;17.33;;;4.80;;
22650;SDS011;11492;42.646;23.400;2023-10-08T14:34:40;22.58;;;4.97;;
22650;SDS011;11492;42.646;23.400;2023-10-08T14:37:13;20.20;;;3.88;;
22650;SDS011;11492;42.646;23.400;2023-10-08T14:39:59;24.15;;;4.72;;
22650;SDS011;11492;42.646;23.400;2023-10-08T14:42:44;22.00;;;4.90;;
22650;SDS011;11492;42.646;23.400;2023-10-08T14:45:28;27.20;;;4.40;;
22650;SDS011;11492;42.646;23.400;2023-10-08T14:48:01;24.13;;;3.92;;
22650;SDS011;11492;42.646;23.400;2023-10-08T14:50:31;32.28;;;4.50;;
22650;SDS011;11492;42.646;23.400;2023-10-08T14:52:58;28.00;;;4.82;;
22650;SDS011;11492;42.646;23.400;2023-10-08T14:55:26;23.25;;;5.07;;
22650;SDS011;11492;42.646;23.400;2023-10-08T14:57:56;26.92;;;4.43;;
22650;SDS011;11492;42.646;23.400;2023-10-08T15:00:27;24.80;;;4.75;;
22650;SDS011;11492;42.646;23.400;2023-10-08T15:02:53;32.10;;;5.32;;
22650;SDS011;11492;42.646;23.400;2023-10-08T15:05:21;28.77;;;4.82;;
22650;SDS011;11492;42.646;23.400;2023-10-08T15:07:49;17.10;;;4.65;;
22650;SDS011;11492;42.646;23.400;2023-10-08T15:10:17;26.77;;;4.88;;